createdAt,value
2019-03-10T00:00:35.044Z,100604.23
2019-03-10T00:03:05.763Z,100603.37
2019-03-10T00:05:42.643Z,100602.50
2019-03-10T00:08:13.629Z,100604.66
2019-03-10T00:10:45.496Z,100601.60
2019-03-10T00:13:16.787Z,100602.48
2019-03-10T00:15:46.919Z,100604.22
2019-03-10T00:18:20.165Z,100598.95
2019-03-10T00:20:50.345Z,100595.46
2019-03-10T00:23:20.647Z,100588.02
2019-03-10T00:25:51.015Z,100584.92
2019-03-10T00:28:21.173Z,100586.67
2019-03-10T00:30:51.401Z,100577.92
2019-03-10T00:33:21.603Z,100577.47
2019-03-10T00:35:54.303Z,100580.08
2019-03-10T00:38:24.477Z,100594.14
2019-03-10T00:41:38.503Z,100586.70
2019-03-10T00:44:44.761Z,100581.00
2019-03-10T00:47:50.775Z,100582.29
2019-03-10T00:51:12.972Z,100593.72
2019-03-10T00:53:43.153Z,100591.52
2019-03-10T00:56:15.198Z,100593.70
2019-03-10T00:58:46.691Z,100575.27
2019-03-10T01:01:30.137Z,100577.48
2019-03-10T01:04:00.625Z,100574.34
2019-03-10T01:06:30.793Z,100580.52
2019-03-10T01:09:03.997Z,100569.95
2019-03-10T01:11:35.949Z,100576.11
2019-03-10T01:14:15.265Z,100574.34
2019-03-10T01:16:48.184Z,100576.09
2019-03-10T01:19:19.573Z,100574.77
2019-03-10T01:21:51.077Z,100562.08
2019-03-10T01:24:22.809Z,100568.63
2019-03-10T01:26:54.484Z,100564.69
2019-03-10T01:29:24.662Z,100553.26
2019-03-10T01:32:25.862Z,100554.16
2019-03-10T01:35:15.739Z,100548.89
2019-03-10T01:37:45.929Z,100540.50
2019-03-10T01:40:16.162Z,100543.56
2019-03-10T01:42:49.667Z,100529.94
2019-03-10T01:45:19.475Z,100527.73
2019-03-10T01:47:49.642Z,100526.04
2019-03-10T01:50:20.302Z,100529.52
2019-03-10T01:52:50.645Z,100522.48
2019-03-10T01:55:20.791Z,100516.41
2019-03-10T01:57:51.594Z,100510.27
2019-03-10T02:00:22.172Z,100503.23
2019-03-10T02:02:52.432Z,100495.34
2019-03-10T02:05:22.581Z,100496.25
2019-03-10T02:07:54.912Z,100486.55
2019-03-10T02:10:25.476Z,100491.42
2019-03-10T02:12:55.806Z,100483.53
2019-03-10T02:15:31.825Z,100479.12
2019-03-10T02:18:02.577Z,100478.77
2019-03-10T02:20:33.191Z,100477.02
2019-03-10T02:23:19.157Z,100475.19
2019-03-10T02:25:52.828Z,100469.12
2019-03-10T02:28:23.414Z,100465.57
2019-03-10T02:30:55.840Z,100460.33
2019-03-10T02:33:26.687Z,100462.95
2019-03-10T02:35:56.895Z,100467.73
2019-03-10T02:38:27.299Z,100460.30
2019-03-10T02:40:58.544Z,100468.61
2019-03-10T02:43:36.480Z,100480.90
2019-03-10T02:46:06.783Z,100471.23
2019-03-10T02:48:37.355Z,100472.53
2019-03-10T02:51:08.005Z,100465.14
2019-03-10T02:53:39.434Z,100461.11
2019-03-10T02:56:09.934Z,100460.33
2019-03-10T02:58:41.577Z,100464.27
2019-03-10T03:01:11.747Z,100461.17
2019-03-10T03:03:41.937Z,100453.27
2019-03-10T03:06:14.969Z,100468.63
2019-03-10T03:08:45.369Z,100449.30
2019-03-10T03:11:15.516Z,100446.67
2019-03-10T03:13:45.934Z,100435.69
2019-03-10T03:16:16.173Z,100420.72
2019-03-10T03:18:46.372Z,100411.97
2019-03-10T03:21:18.651Z,100409.31
2019-03-10T03:23:48.804Z,100407.11
2019-03-10T03:26:20.263Z,100408.86
2019-03-10T03:28:51.487Z,100402.28
2019-03-10T03:31:21.798Z,100407.09
2019-03-10T03:33:51.973Z,100412.81
2019-03-10T03:36:28.699Z,100411.49
2019-03-10T03:39:02.691Z,100407.52
2019-03-10T03:41:36.509Z,100401.33
2019-03-10T03:44:08.846Z,100392.19
2019-03-10T03:46:40.361Z,100388.65
2019-03-10T03:49:10.552Z,100389.09
2019-03-10T03:51:42.190Z,100385.98
2019-03-10T03:54:15.194Z,100383.37
2019-03-10T03:56:46.055Z,100388.52
2019-03-10T03:59:17.001Z,100389.89
2019-03-10T04:01:53.560Z,100390.73
2019-03-10T04:04:23.748Z,100381.49
2019-03-10T04:06:53.910Z,100378.80
2019-03-10T04:09:24.091Z,100378.84
2019-03-10T04:11:54.298Z,100370.94
2019-03-10T04:14:27.519Z,100362.65
2019-03-10T04:16:57.648Z,100360.88
2019-03-10T04:19:52.144Z,100351.27
2019-03-10T04:22:24.612Z,100347.25
2019-03-10T04:24:57.626Z,100344.66
2019-03-10T04:27:27.839Z,100342.47
2019-03-10T04:29:58.408Z,100332.31
2019-03-10T04:32:28.681Z,100325.31
2019-03-10T04:35:00.131Z,100316.93
2019-03-10T04:37:32.309Z,100322.13
2019-03-10T04:40:02.730Z,100316.80
2019-03-10T04:42:41.150Z,100323.77
2019-03-10T04:45:11.687Z,100313.42
2019-03-10T04:47:41.984Z,100303.19
2019-03-10T04:50:12.285Z,100291.19
2019-03-10T04:52:42.975Z,100290.69
2019-03-10T04:55:36.599Z,100292.01
2019-03-10T04:58:08.999Z,100284.02
2019-03-10T05:00:40.785Z,100285.77
2019-03-10T05:03:15.163Z,100283.47
2019-03-10T05:05:46.028Z,100281.73
2019-03-10T05:08:16.297Z,100282.53
2019-03-10T05:10:46.549Z,100279.02
2019-03-10T05:13:16.821Z,100262.29
2019-03-10T05:15:47.015Z,100255.20
2019-03-10T05:18:19.565Z,100248.19
2019-03-10T05:20:50.021Z,100248.36
2019-03-10T05:23:38.372Z,100236.80
2019-03-10T05:26:08.635Z,100241.13
2019-03-10T05:28:46.782Z,100229.73
2019-03-10T05:31:24.187Z,100230.16
2019-03-10T05:33:54.412Z,100215.24
2019-03-10T05:36:24.599Z,100215.67
2019-03-10T05:38:56.415Z,100214.97
2019-03-10T05:41:26.654Z,100203.03
2019-03-10T05:44:01.015Z,100209.97
2019-03-10T05:46:31.217Z,100206.61
2019-03-10T05:49:01.439Z,100199.44
2019-03-10T05:51:32.765Z,100200.30
2019-03-10T05:54:05.314Z,100200.08
2019-03-10T05:56:35.863Z,100190.42
2019-03-10T05:59:06.022Z,100182.05
2019-03-10T06:01:36.874Z,100184.62
2019-03-10T06:04:08.575Z,100178.41
2019-03-10T06:06:38.783Z,100169.63
2019-03-10T06:09:10.718Z,100159.89
2019-03-10T06:11:40.877Z,100158.45
2019-03-10T06:14:11.068Z,100153.62
2019-03-10T06:16:41.240Z,100148.77
2019-03-10T06:19:11.468Z,100150.47
2019-03-10T06:21:44.862Z,100147.34
2019-03-10T06:24:15.315Z,100144.94
2019-03-10T06:26:47.794Z,100133.84
2019-03-10T06:29:20.648Z,100122.27
2019-03-10T06:31:50.828Z,100124.48
2019-03-10T06:34:21.082Z,100118.29
2019-03-10T06:36:52.498Z,100113.32
2019-03-10T06:39:22.636Z,100104.49
2019-03-10T06:41:53.945Z,100105.38
2019-03-10T06:44:24.205Z,100099.98
2019-03-10T06:46:55.506Z,100081.13
2019-03-10T06:49:25.786Z,100083.61
2019-03-10T06:51:55.959Z,100074.67
2019-03-10T06:54:26.177Z,100065.58
2019-03-10T06:56:56.346Z,100058.88
2019-03-10T06:59:29.457Z,100058.35
2019-03-10T07:02:02.168Z,100050.08
2019-03-10T07:04:38.012Z,100058.39
2019-03-10T07:07:08.175Z,100043.99
2019-03-10T07:09:38.354Z,100039.92
2019-03-10T07:12:08.552Z,100036.36
2019-03-10T07:14:41.706Z,100034.66
2019-03-10T07:17:12.018Z,100029.34
2019-03-10T07:19:42.156Z,100026.66
2019-03-10T07:22:12.403Z,100022.09
2019-03-10T07:24:42.575Z,100015.66
2019-03-10T07:27:12.846Z,99998.23
2019-03-10T07:29:57.378Z,99997.27
2019-03-10T07:32:48.449Z,99988.48
2019-03-10T07:35:42.307Z,99990.23
2019-03-10T07:38:21.916Z,99990.81
2019-03-10T07:41:09.885Z,99981.35
2019-03-10T07:44:03.780Z,99973.05
2019-03-10T07:46:45.632Z,99968.52
2019-03-10T07:49:36.586Z,99977.47
2019-03-10T07:52:40.888Z,99971.77
2019-03-10T07:55:27.184Z,99966.38
2019-03-10T07:58:19.663Z,99961.25
2019-03-10T08:01:20.685Z,99962.97
2019-03-10T08:04:09.918Z,99963.11
2019-03-10T08:06:57.686Z,99956.11
2019-03-10T08:09:35.152Z,99941.44
2019-03-10T08:12:21.233Z,99947.98
2019-03-10T08:15:23.696Z,99944.99
2019-03-10T08:18:16.638Z,99934.23
2019-03-10T08:21:03.985Z,99933.17
2019-03-10T08:23:45.669Z,99927.34
2019-03-10T08:26:21.929Z,99925.03
2019-03-10T08:29:19.175Z,99922.17
2019-03-10T08:35:24.739Z,99913.22
2019-03-10T08:38:07.117Z,99911.16
2019-03-10T08:41:04.392Z,99905.75
2019-03-10T08:43:43.069Z,99910.39
2019-03-10T08:46:34.781Z,99907.51
2019-03-10T08:49:44.362Z,99909.08
2019-03-10T08:52:11.407Z,99914.34
2019-03-10T08:54:53.061Z,99912.27
2019-03-10T08:57:48.524Z,99910.75
2019-03-10T09:00:44.173Z,99906.74
2019-03-10T09:03:32.566Z,99914.30
2019-03-10T09:06:20.604Z,99908.10
2019-03-10T09:09:22.323Z,99898.35
2019-03-10T09:12:08.565Z,99889.20
2019-03-10T09:14:57.652Z,99881.55
2019-03-10T09:17:37.933Z,99866.23
2019-03-10T09:20:32.303Z,99857.19
2019-03-10T09:23:52.141Z,99855.54
2019-03-10T09:26:41.093Z,99844.81
2019-03-10T09:29:20.781Z,99845.26
2019-03-10T09:32:09.491Z,99843.56
2019-03-10T09:35:01.511Z,99824.55
2019-03-10T09:37:53.994Z,99824.89
2019-03-10T09:40:44.454Z,99827.77
2019-03-10T09:43:37.567Z,99813.77
2019-03-10T09:46:22.283Z,99799.81
2019-03-10T09:49:14.187Z,99787.00
2019-03-10T09:52:15.467Z,99790.39
2019-03-10T09:55:04.528Z,99792.32
2019-03-10T09:58:02.822Z,99778.69
2019-03-10T10:00:39.720Z,99768.80
2019-03-10T10:03:32.636Z,99759.98
2019-03-10T10:06:24.029Z,99754.84
2019-03-10T10:09:17.772Z,99745.50
2019-03-10T10:12:12.671Z,99734.91
2019-03-10T10:15:02.832Z,99731.35
2019-03-10T10:18:07.449Z,99728.63
2019-03-10T10:20:52.503Z,99710.22
2019-03-10T10:23:40.336Z,99717.55
2019-03-10T10:26:28.310Z,99712.69
2019-03-10T10:29:20.801Z,99698.19
2019-03-10T10:32:07.898Z,99701.29
2019-03-10T10:34:43.808Z,99691.42
2019-03-10T10:37:32.136Z,99690.60
2019-03-10T10:40:15.161Z,99683.23
2019-03-10T10:43:08.276Z,99683.51
2019-03-10T10:46:09.008Z,99665.55
2019-03-10T10:48:47.266Z,99654.52
2019-03-10T10:51:35.004Z,99655.89
2019-03-10T10:54:20.534Z,99662.59
2019-03-10T10:56:57.872Z,99651.78
2019-03-10T10:59:51.742Z,99640.59
2019-03-10T11:02:42.518Z,99628.37
2019-03-10T11:05:34.697Z,99629.22
2019-03-10T11:08:39.235Z,99627.38
2019-03-10T11:11:26.865Z,99616.55
2019-03-10T11:14:15.163Z,99622.84
2019-03-10T11:17:04.150Z,99617.66
2019-03-10T11:19:41.155Z,99614.38
2019-03-10T11:22:32.292Z,99608.17
2019-03-10T11:25:30.488Z,99606.69
2019-03-10T11:28:08.973Z,99602.92
2019-03-10T11:30:58.785Z,99599.84
2019-03-10T11:33:53.888Z,99597.20
2019-03-10T11:36:38.717Z,99582.39
2019-03-10T11:39:16.348Z,99576.38
2019-03-10T11:41:54.317Z,99562.30
2019-03-10T11:44:40.581Z,99540.27
2019-03-10T11:47:31.147Z,99548.72
2019-03-10T11:50:20.252Z,99553.36
2019-03-10T11:52:57.569Z,99543.77
2019-03-10T11:55:34.395Z,99537.73
2019-03-10T11:58:30.052Z,99531.78
2019-03-10T12:01:29.809Z,99536.14
2019-03-10T12:04:21.689Z,99530.47
2019-03-10T12:07:09.515Z,99519.44
2019-03-10T12:09:40.135Z,99519.60
2019-03-10T12:12:10.753Z,99508.24
2019-03-10T12:14:41.087Z,99503.44
2019-03-10T12:17:13.133Z,99487.70
2019-03-10T12:19:43.461Z,99477.66
2019-03-10T12:22:13.749Z,99471.02
2019-03-10T12:24:44.430Z,99451.63
2019-03-10T12:27:18.079Z,99446.30
2019-03-10T12:29:48.316Z,99440.45
2019-03-10T12:32:18.681Z,99437.83
2019-03-10T12:34:51.179Z,99431.22
2019-03-10T12:37:21.798Z,99426.81
2019-03-10T12:39:55.687Z,99422.11
2019-03-10T12:42:26.450Z,99410.02
2019-03-10T12:44:57.406Z,99411.17
2019-03-10T12:47:31.736Z,99415.30
2019-03-10T12:50:08.875Z,99407.22
2019-03-10T12:52:39.558Z,99410.09
2019-03-10T12:55:17.005Z,99402.52
2019-03-10T12:57:47.042Z,99394.48
2019-03-10T13:00:17.335Z,99396.97
2019-03-10T13:02:49.267Z,99389.34
2019-03-10T13:05:19.438Z,99389.59
2019-03-10T13:07:49.654Z,99380.42
2019-03-10T13:10:25.399Z,99375.48
2019-03-10T13:12:58.635Z,99388.32
2019-03-10T13:15:29.344Z,99393.21
2019-03-10T13:18:00.102Z,99384.95
2019-03-10T13:20:34.071Z,99377.41
2019-03-10T13:23:04.810Z,99377.79
2019-03-10T13:25:37.501Z,99371.30
2019-03-10T13:28:07.668Z,99365.04
2019-03-10T13:30:37.944Z,99355.17
2019-03-10T13:33:08.939Z,99342.23
2019-03-10T13:35:39.224Z,99330.31
2019-03-10T13:38:10.709Z,99325.17
2019-03-10T13:40:41.676Z,99315.72
2019-03-10T13:43:11.891Z,99304.78
2019-03-10T13:45:42.309Z,99296.44
2019-03-10T13:48:12.845Z,99299.31
2019-03-10T13:50:43.033Z,99299.16
2019-03-10T13:53:13.200Z,99290.84
2019-03-10T13:55:43.458Z,99287.09
2019-03-10T13:58:15.013Z,99284.52
2019-03-10T14:00:46.937Z,99281.61
2019-03-10T14:03:17.266Z,99279.59
2019-03-10T14:05:47.814Z,99285.39
2019-03-10T14:08:18.077Z,99286.02
2019-03-10T14:10:48.555Z,99284.61
2019-03-10T14:13:19.669Z,99276.55
2019-03-10T14:15:49.962Z,99279.95
2019-03-10T14:18:24.284Z,99271.35
2019-03-10T14:20:54.564Z,99275.56
2019-03-10T14:23:24.766Z,99276.63
2019-03-10T14:25:55.238Z,99273.88
2019-03-10T14:28:25.592Z,99265.39
2019-03-10T14:30:55.848Z,99256.89
2019-03-10T14:33:27.707Z,99252.70
2019-03-10T14:35:58.005Z,99253.59
2019-03-10T14:38:28.176Z,99244.14
2019-03-10T14:40:58.441Z,99237.86
2019-03-10T14:43:29.339Z,99241.64
2019-03-10T14:46:00.558Z,99243.69
2019-03-10T14:48:30.826Z,99241.17
2019-03-10T14:51:01.005Z,99237.55
2019-03-10T14:53:31.314Z,99233.66
2019-03-10T14:56:01.681Z,99226.70
2019-03-10T14:58:32.924Z,99223.22
2019-03-10T15:01:09.348Z,99217.55
2019-03-10T15:03:40.926Z,99198.99
2019-03-10T15:06:11.584Z,99186.92
2019-03-10T15:08:41.781Z,99167.77
2019-03-10T15:11:11.968Z,99161.25
2019-03-10T15:13:42.925Z,99162.48
2019-03-10T15:16:13.431Z,99167.23
2019-03-10T15:18:43.661Z,99167.89
2019-03-10T15:21:14.931Z,99180.36
2019-03-10T15:23:45.090Z,99182.09
2019-03-10T15:26:15.215Z,99191.51
2019-03-10T15:28:52.123Z,99197.76
2019-03-10T15:31:22.413Z,99199.64
2019-03-10T15:33:52.648Z,99195.22
2019-03-10T15:36:22.911Z,99185.16
2019-03-10T15:38:53.097Z,99196.56
2019-03-10T15:41:23.379Z,99194.05
2019-03-10T15:44:00.790Z,99210.78
2019-03-10T15:46:37.210Z,99213.05
2019-03-10T15:49:07.510Z,99218.50
2019-03-10T15:51:37.639Z,99212.34
2019-03-10T15:54:09.764Z,99221.88
2019-03-10T15:56:40.416Z,99245.85
2019-03-10T15:59:12.454Z,99250.60
2019-03-10T16:01:44.646Z,99250.73
2019-03-10T16:04:33.051Z,99250.56
2019-03-10T16:07:03.613Z,99262.56
2019-03-10T16:09:37.975Z,99277.99
2019-03-10T16:12:11.506Z,99284.80
2019-03-10T16:14:42.008Z,99275.07
2019-03-10T16:17:13.103Z,99270.77
2019-03-10T16:19:49.191Z,99274.22
2019-03-10T16:22:19.517Z,99282.47
2019-03-10T16:24:49.701Z,99291.23
2019-03-10T16:27:23.966Z,99308.41
2019-03-10T16:29:54.667Z,99320.14
2019-03-10T16:32:31.529Z,99335.61
2019-03-10T16:35:22.061Z,99353.28
2019-03-10T16:37:51.917Z,99362.31
2019-03-10T16:40:22.235Z,99370.09
2019-03-10T16:42:53.714Z,99367.71
2019-03-10T16:45:25.933Z,99385.31
2019-03-10T16:47:59.254Z,99391.11
2019-03-10T16:50:30.867Z,99401.55
2019-03-10T16:53:00.946Z,99411.59
2019-03-10T16:55:31.839Z,99416.43
2019-03-10T16:58:02.959Z,99427.26
2019-03-10T17:00:33.853Z,99439.61
2019-03-10T17:03:10.487Z,99453.05
2019-03-10T17:05:40.927Z,99469.26
2019-03-10T17:08:11.109Z,99470.13
2019-03-10T17:10:41.377Z,99488.40
2019-03-10T17:13:12.563Z,99498.45
2019-03-10T17:15:43.948Z,99500.63
2019-03-10T17:18:14.089Z,99494.09
2019-03-10T17:20:44.485Z,99511.95
2019-03-10T17:23:16.545Z,99522.39
2019-03-10T17:25:46.911Z,99542.39
2019-03-10T17:28:17.357Z,99564.56
2019-03-10T17:30:47.867Z,99572.85
2019-03-10T17:33:18.264Z,99586.31
2019-03-10T17:35:48.772Z,99596.77
2019-03-10T17:38:22.529Z,99607.64
2019-03-10T17:40:56.939Z,99621.55
2019-03-10T17:43:27.488Z,99647.21
2019-03-10T17:46:06.673Z,99675.48
2019-03-10T17:48:38.014Z,99698.52
2019-03-10T17:51:08.414Z,99714.15
2019-03-10T17:53:49.220Z,99727.20
2019-03-10T17:56:21.331Z,99740.69
2019-03-10T17:58:52.312Z,99778.95
2019-03-10T18:01:23.783Z,99795.47
2019-03-10T18:03:56.664Z,99823.30
2019-03-10T18:06:27.303Z,99844.58
2019-03-10T18:08:59.277Z,99858.03
2019-03-10T18:11:29.635Z,99891.55
2019-03-10T18:13:59.842Z,99910.23
2019-03-10T18:16:33.519Z,99916.77
2019-03-10T18:19:04.216Z,99948.08
2019-03-10T18:21:37.394Z,99963.72
2019-03-10T18:24:07.602Z,99985.45
2019-03-10T18:26:40.856Z,100001.09
2019-03-10T18:29:15.234Z,100013.30
2019-03-10T18:31:46.036Z,100032.89
2019-03-10T18:34:16.327Z,100041.19
2019-03-10T18:36:46.862Z,100054.67
2019-03-10T18:39:17.107Z,100068.11
2019-03-10T18:41:47.398Z,100076.85
2019-03-10T18:44:23.461Z,100088.22
2019-03-10T18:46:56.043Z,100105.56
2019-03-10T18:49:26.352Z,100116.84
2019-03-10T18:51:57.059Z,100128.58
2019-03-10T18:54:28.874Z,100127.28
2019-03-10T18:57:06.010Z,100137.23
2019-03-10T18:59:36.732Z,100141.24
2019-03-10T19:02:18.196Z,100144.72
2019-03-10T19:04:48.544Z,100156.89
2019-03-10T19:07:32.932Z,100163.03
2019-03-10T19:10:05.913Z,100175.19
2019-03-10T19:12:39.558Z,100179.16
2019-03-10T19:15:11.477Z,100188.31
2019-03-10T19:17:41.822Z,100195.30
2019-03-10T19:20:12.800Z,100194.85
2019-03-10T19:22:46.408Z,100204.48
2019-03-10T19:25:16.809Z,100213.20
2019-03-10T19:27:48.216Z,100219.66
2019-03-10T19:30:18.453Z,100221.07
2019-03-10T19:32:48.797Z,100225.88
2019-03-10T19:35:23.376Z,100237.64
2019-03-10T19:37:54.364Z,100235.95
2019-03-10T19:40:24.746Z,100241.59
2019-03-10T19:42:55.392Z,100243.36
2019-03-10T19:45:27.163Z,100254.63
2019-03-10T19:47:57.359Z,100251.20
2019-03-10T19:50:30.556Z,100263.77
2019-03-10T19:53:00.972Z,100270.32
2019-03-10T19:55:31.197Z,100278.20
2019-03-10T19:58:01.508Z,100268.63
2019-03-10T20:00:32.063Z,100277.39
2019-03-10T20:03:03.834Z,100274.70
2019-03-10T20:05:34.075Z,100287.86
2019-03-10T20:08:04.323Z,100291.79
2019-03-10T20:10:36.784Z,100295.80
2019-03-10T20:13:14.042Z,100304.47
2019-03-10T20:15:44.100Z,100303.61
2019-03-10T20:18:14.719Z,100306.16
2019-03-10T20:20:44.937Z,100317.06
2019-03-10T20:23:22.548Z,100318.45
2019-03-10T20:25:52.809Z,100320.52
2019-03-10T20:28:23.348Z,100327.98
2019-03-10T20:30:53.796Z,100335.84
2019-03-10T20:33:24.046Z,100338.44
2019-03-10T20:35:55.332Z,100344.01
2019-03-10T20:38:27.185Z,100348.86
2019-03-10T20:40:57.394Z,100356.31
2019-03-10T20:43:28.841Z,100355.87
2019-03-10T20:45:59.093Z,100371.56
2019-03-10T20:48:31.446Z,100372.87
2019-03-10T20:51:05.310Z,100375.00
2019-03-10T20:53:37.646Z,100378.89
2019-03-10T20:56:10.307Z,100381.97
2019-03-10T20:58:40.706Z,100386.31
2019-03-10T21:01:12.629Z,100395.10
2019-03-10T21:03:42.968Z,100398.59
2019-03-10T21:06:14.677Z,100406.00
2019-03-10T21:08:49.277Z,100401.31
2019-03-10T21:11:20.962Z,100401.23
2019-03-10T21:13:51.269Z,100402.57
2019-03-10T21:16:25.454Z,100409.09
2019-03-10T21:18:56.738Z,100419.05
2019-03-10T21:21:27.957Z,100426.53
2019-03-10T21:24:02.145Z,100424.00
2019-03-10T21:26:33.203Z,100425.33
2019-03-10T21:29:06.596Z,100422.64
2019-03-10T21:31:36.874Z,100427.93
2019-03-10T21:34:11.307Z,100430.02
2019-03-10T21:36:41.733Z,100433.56
2019-03-10T21:39:11.910Z,100441.47
2019-03-10T21:41:42.137Z,100436.27
2019-03-10T21:44:12.317Z,100456.63
2019-03-10T21:46:42.453Z,100455.80
2019-03-10T21:49:12.666Z,100447.55
2019-03-10T21:51:44.667Z,100441.42
2019-03-10T21:54:17.599Z,100446.77
2019-03-10T21:56:48.499Z,100448.47
2019-03-10T21:59:20.316Z,100449.48
2019-03-10T22:01:50.434Z,100455.55
2019-03-10T22:04:23.906Z,100455.13
2019-03-10T22:06:57.959Z,100461.66
2019-03-10T22:09:29.782Z,100458.63
2019-03-10T22:12:00.243Z,100477.34
2019-03-10T22:14:30.604Z,100487.33
2019-03-10T22:17:06.329Z,100494.24
2019-03-10T22:19:36.532Z,100495.59
2019-03-10T22:22:06.841Z,100494.72
2019-03-10T22:24:38.292Z,100499.47
2019-03-10T22:27:08.738Z,100509.11
2019-03-10T22:29:38.938Z,100509.13
2019-03-10T22:32:09.317Z,100511.23
2019-03-10T22:34:39.507Z,100506.92
2019-03-10T22:37:09.653Z,100521.22
2019-03-10T22:39:39.821Z,100523.81
2019-03-10T22:42:10.042Z,100533.78
2019-03-10T22:44:41.294Z,100528.58
2019-03-10T22:47:11.411Z,100533.31
2019-03-10T22:49:41.580Z,100534.11
2019-03-10T22:52:11.804Z,100532.50
2019-03-10T22:54:41.961Z,100542.61
2019-03-10T22:57:13.838Z,100538.20
2019-03-10T22:59:45.370Z,100522.91
2019-03-10T23:02:15.678Z,100528.57
2019-03-10T23:04:45.829Z,100532.17
2019-03-10T23:07:15.968Z,100533.06
2019-03-10T23:09:46.141Z,100536.91
2019-03-10T23:12:16.466Z,100527.84
2019-03-10T23:14:48.734Z,100528.73
2019-03-10T23:17:19.820Z,100534.43
2019-03-10T23:19:50.058Z,100534.86
2019-03-10T23:22:20.219Z,100543.68
2019-03-10T23:24:50.738Z,100540.98
2019-03-10T23:27:21.067Z,100544.52
2019-03-10T23:29:51.650Z,100539.38
2019-03-10T23:32:22.015Z,100535.05
2019-03-10T23:34:52.422Z,100539.45
2019-03-10T23:37:25.440Z,100540.36
2019-03-10T23:39:55.705Z,100532.97
2019-03-10T23:42:30.586Z,100535.21
2019-03-10T23:45:03.950Z,100530.00
2019-03-10T23:47:35.081Z,100538.25
2019-03-10T23:50:07.984Z,100538.70
2019-03-10T23:52:39.692Z,100539.55
2019-03-10T23:55:09.878Z,100533.95
2019-03-10T23:57:42.386Z,100532.70
